createdAt,value
2019-05-11T00:00:20.301Z,14.73
2019-05-11T00:02:47.699Z,14.00
2019-05-11T00:05:15.090Z,14.28
2019-05-11T00:07:42.500Z,14.33
2019-05-11T00:10:09.893Z,13.55
2019-05-11T00:12:37.308Z,13.80
2019-05-11T00:15:04.942Z,15.23
2019-05-11T00:17:32.343Z,13.43
2019-05-11T00:19:59.773Z,13.55
2019-05-11T00:22:27.180Z,14.53
2019-05-11T00:24:54.591Z,14.35
2019-05-11T00:27:21.967Z,14.53
2019-05-11T00:29:49.366Z,13.68
2019-05-11T00:32:16.763Z,14.25
2019-05-11T00:34:44.154Z,15.03
2019-05-11T00:37:11.550Z,14.47
2019-05-11T00:39:38.938Z,14.65
2019-05-11T00:42:06.333Z,15.50
2019-05-11T00:44:33.819Z,15.90
2019-05-11T00:47:01.202Z,15.63
2019-05-11T00:49:28.590Z,15.10
2019-05-11T00:51:55.994Z,15.13
2019-05-11T00:54:23.378Z,14.53
2019-05-11T00:56:50.791Z,14.95
2019-05-11T00:59:21.709Z,15.23
2019-05-11T01:01:47.401Z,15.80
2019-05-11T01:04:14.830Z,15.35
2019-05-11T01:06:42.187Z,15.50
2019-05-11T01:09:09.578Z,15.05
2019-05-11T01:11:36.949Z,15.03
2019-05-11T01:14:04.844Z,15.78
2019-05-11T01:16:32.410Z,16.82
2019-05-11T01:18:59.802Z,15.35
2019-05-11T01:21:27.197Z,16.40
2019-05-11T01:23:54.598Z,16.35
2019-05-11T01:26:21.985Z,16.15
2019-05-11T01:28:49.370Z,16.05
2019-05-11T01:31:16.776Z,15.90
2019-05-11T01:33:44.179Z,17.37
2019-05-11T01:36:11.570Z,17.07
2019-05-11T01:38:39.066Z,15.90
2019-05-11T01:41:06.493Z,17.17
2019-05-11T01:43:33.935Z,16.52
2019-05-11T01:46:01.306Z,16.75
2019-05-11T01:48:28.718Z,17.25
2019-05-11T01:50:56.113Z,17.15
2019-05-11T01:53:23.402Z,16.27
2019-05-11T01:55:50.801Z,16.37
2019-05-11T01:58:18.208Z,16.97
2019-05-11T02:00:45.591Z,16.85
2019-05-11T02:03:12.975Z,17.35
2019-05-11T02:05:40.361Z,18.15
2019-05-11T02:08:08.534Z,16.97
2019-05-11T02:10:35.855Z,17.10
2019-05-11T02:13:03.243Z,17.30
2019-05-11T02:15:30.623Z,17.57
2019-05-11T02:17:57.994Z,16.65
2019-05-11T02:20:25.397Z,17.07
2019-05-11T02:22:52.795Z,16.65
2019-05-11T02:25:20.194Z,17.23
2019-05-11T02:27:47.584Z,18.17
2019-05-11T02:30:16.891Z,16.70
2019-05-11T02:32:44.291Z,16.37
2019-05-11T02:35:12.402Z,17.77
2019-05-11T02:37:39.810Z,16.87
2019-05-11T02:40:07.499Z,16.25
2019-05-11T02:42:34.915Z,17.32
2019-05-11T02:45:02.401Z,17.30
2019-05-11T02:47:29.807Z,17.35
2019-05-11T02:49:57.191Z,16.27
2019-05-11T02:52:25.179Z,17.57
2019-05-11T02:54:54.585Z,16.97
2019-05-11T02:57:21.982Z,15.80
2019-05-11T02:59:49.388Z,16.17
2019-05-11T03:02:16.800Z,17.50
2019-05-11T03:04:44.198Z,15.65
2019-05-11T03:07:11.604Z,17.27
2019-05-11T03:09:39.039Z,17.45
2019-05-11T03:12:06.405Z,17.25
2019-05-11T03:14:33.772Z,16.62
2019-05-11T03:17:22.678Z,16.27
2019-05-11T03:19:50.090Z,17.70
2019-05-11T03:22:17.483Z,17.10
2019-05-11T03:24:44.906Z,17.82
2019-05-11T03:27:12.307Z,17.40
2019-05-11T03:29:39.685Z,17.65
2019-05-11T03:32:07.084Z,16.90
2019-05-11T03:34:34.537Z,17.92
2019-05-11T03:37:01.931Z,17.20
2019-05-11T03:39:29.342Z,17.75
2019-05-11T03:42:13.156Z,18.15
2019-05-11T03:44:25.939Z,17.73
2019-05-11T03:46:53.351Z,17.00
2019-05-11T03:49:20.763Z,17.90
2019-05-11T03:51:48.160Z,18.07
2019-05-11T03:54:15.559Z,17.67
2019-05-11T03:56:42.937Z,18.42
2019-05-11T03:59:10.357Z,17.87
2019-05-11T04:01:37.746Z,18.92
2019-05-11T04:04:05.148Z,18.62
2019-05-11T04:06:32.539Z,17.57
2019-05-11T04:08:59.945Z,16.62
2019-05-11T04:11:27.333Z,16.85
2019-05-11T04:13:54.735Z,17.80
2019-05-11T04:16:22.145Z,16.40
2019-05-11T04:18:49.529Z,16.85
2019-05-11T04:21:16.951Z,17.52
2019-05-11T04:23:44.331Z,16.85
2019-05-11T04:26:11.727Z,16.40
2019-05-11T04:28:39.135Z,16.65
2019-05-11T04:31:06.523Z,16.20
2019-05-11T04:33:33.977Z,15.55
2019-05-11T04:36:01.371Z,15.18
2019-05-11T04:38:28.755Z,17.48
2019-05-11T04:40:56.145Z,16.42
2019-05-11T04:43:23.551Z,17.02
2019-05-11T04:45:51.130Z,17.45
2019-05-11T04:48:18.524Z,17.85
2019-05-11T04:50:45.951Z,18.65
2019-05-11T04:53:13.338Z,18.57
2019-05-11T04:55:40.768Z,17.70
2019-05-11T04:58:08.171Z,18.75
2019-05-11T05:00:35.600Z,18.73
2019-05-11T05:03:02.988Z,19.15
2019-05-11T05:05:30.419Z,19.60
2019-05-11T05:08:09.322Z,18.52
2019-05-11T05:10:26.999Z,19.67
2019-05-11T05:13:08.513Z,20.55
2019-05-11T05:15:23.614Z,18.90
2019-05-11T05:17:50.940Z,21.10
2019-05-11T05:20:18.335Z,20.85
2019-05-11T05:22:45.726Z,21.23
2019-05-11T05:25:13.154Z,20.72
2019-05-11T05:27:40.587Z,21.15
2019-05-11T05:30:09.105Z,21.42
2019-05-11T05:32:36.544Z,22.65
2019-05-11T05:35:04.119Z,21.30
2019-05-11T05:37:31.514Z,22.42
2019-05-11T05:39:58.904Z,22.93
2019-05-11T05:42:26.317Z,24.50
2019-05-11T05:44:53.718Z,23.95
2019-05-11T05:47:21.094Z,23.45
2019-05-11T05:49:48.517Z,24.27
2019-05-11T05:52:15.874Z,24.82
2019-05-11T05:54:43.287Z,25.17
2019-05-11T05:57:10.679Z,25.65
2019-05-11T05:59:38.112Z,25.45
2019-05-11T06:02:05.546Z,27.13
2019-05-11T06:04:32.951Z,26.68
2019-05-11T06:07:01.368Z,26.70
2019-05-11T06:09:28.801Z,27.93
2019-05-11T06:11:56.243Z,29.48
2019-05-11T06:14:23.659Z,27.85
2019-05-11T06:16:51.450Z,28.35
2019-05-11T06:19:18.864Z,29.42
2019-05-11T06:21:46.258Z,31.45
2019-05-11T06:24:13.708Z,29.98
2019-05-11T06:26:41.082Z,30.30
2019-05-11T06:29:08.383Z,31.05
2019-05-11T06:31:35.854Z,31.62
2019-05-11T06:34:03.331Z,31.30
2019-05-11T06:36:30.680Z,29.72
2019-05-11T06:38:58.058Z,30.72
2019-05-11T06:41:25.491Z,29.67
2019-05-11T06:44:01.280Z,28.73
2019-05-11T06:46:22.042Z,27.67
2019-05-11T06:48:49.438Z,28.27
2019-05-11T06:51:16.814Z,28.20
2019-05-11T06:53:44.194Z,28.17
2019-05-11T06:56:11.603Z,27.32
2019-05-11T06:58:39.007Z,26.95
2019-05-11T07:01:06.418Z,25.88
2019-05-11T07:03:33.966Z,25.68
2019-05-11T07:06:01.356Z,25.12
2019-05-11T07:08:28.754Z,25.30
2019-05-11T07:10:56.204Z,25.30
2019-05-11T07:13:23.467Z,26.30
2019-05-11T07:15:50.841Z,25.30
2019-05-11T07:18:18.226Z,25.90
2019-05-11T07:20:50.654Z,25.82
2019-05-11T07:23:14.826Z,26.75
2019-05-11T07:25:42.214Z,26.07
2019-05-11T07:28:09.625Z,25.02
2019-05-11T07:30:37.050Z,26.02
2019-05-11T07:33:04.502Z,26.60
2019-05-11T07:35:32.229Z,26.12
2019-05-11T07:37:59.654Z,25.90
2019-05-11T07:40:27.947Z,25.43
2019-05-11T07:42:55.452Z,25.12
2019-05-11T07:45:22.893Z,25.55
2019-05-11T07:47:50.292Z,25.75
2019-05-11T07:50:18.367Z,25.20
2019-05-11T07:52:47.675Z,24.23
2019-05-11T07:55:15.050Z,25.10
2019-05-11T07:57:42.454Z,24.27
2019-05-11T08:00:09.883Z,22.85
2019-05-11T08:02:38.645Z,22.30
2019-05-11T08:05:08.688Z,22.48
2019-05-11T08:07:37.853Z,21.73
2019-05-11T08:10:08.015Z,21.17
2019-05-11T08:12:34.910Z,19.20
2019-05-11T08:15:09.098Z,19.40
2019-05-11T08:17:31.561Z,18.85
2019-05-11T08:19:58.946Z,18.52
2019-05-11T08:22:28.453Z,17.73
2019-05-11T08:24:55.566Z,17.67
2019-05-11T08:27:22.958Z,18.60
2019-05-11T08:29:50.376Z,19.02
2019-05-11T08:32:18.303Z,18.65
2019-05-11T08:34:45.774Z,17.20
2019-05-11T08:37:13.212Z,16.25
2019-05-11T08:39:40.625Z,17.10
2019-05-11T08:42:08.697Z,15.23
2019-05-11T08:44:38.003Z,13.83
2019-05-11T08:47:05.609Z,13.65
2019-05-11T08:49:33.046Z,13.70
2019-05-11T08:52:00.391Z,13.40
2019-05-11T08:54:28.857Z,12.53
2019-05-11T08:56:58.515Z,12.25
2019-05-11T08:59:27.669Z,11.35
2019-05-11T09:01:54.653Z,9.95
2019-05-11T09:04:22.236Z,9.70
2019-05-11T09:06:49.633Z,9.63
2019-05-11T09:09:18.130Z,10.80
2019-05-11T09:11:47.976Z,10.03
2019-05-11T09:14:14.705Z,9.58
2019-05-11T09:16:42.083Z,9.80
2019-05-11T09:19:09.462Z,9.30
2019-05-11T09:21:38.277Z,8.80
2019-05-11T09:24:08.206Z,9.83
2019-05-11T09:26:35.170Z,9.10
2019-05-11T09:29:02.571Z,10.30
2019-05-11T09:31:29.986Z,8.93
2019-05-11T09:33:58.367Z,8.88
2019-05-11T09:36:28.309Z,8.98
2019-05-11T09:38:55.186Z,8.80
2019-05-11T09:41:22.590Z,8.75
2019-05-11T09:43:50.046Z,8.78
2019-05-11T09:46:18.942Z,8.55
2019-05-11T09:48:48.322Z,8.70
2019-05-11T09:51:15.490Z,8.40
2019-05-11T09:53:42.878Z,8.00
2019-05-11T09:56:10.272Z,7.75
2019-05-11T09:58:38.641Z,7.97
2019-05-11T10:01:08.653Z,7.87
2019-05-11T10:03:35.441Z,8.20
2019-05-11T10:06:02.866Z,7.50
2019-05-11T10:08:30.225Z,6.60
2019-05-11T10:10:58.168Z,6.12
2019-05-11T10:13:27.694Z,5.83
2019-05-11T10:16:04.550Z,5.67
2019-05-11T10:18:24.421Z,5.50
2019-05-11T10:20:51.887Z,5.70
2019-05-11T10:23:19.285Z,6.58
2019-05-11T10:25:48.077Z,7.20
2019-05-11T10:28:17.736Z,6.33
2019-05-11T10:30:44.790Z,7.53
2019-05-11T10:33:12.206Z,6.67
2019-05-11T10:35:39.586Z,7.35
2019-05-11T10:38:08.984Z,6.70
2019-05-11T10:40:38.598Z,5.67
2019-05-11T10:43:07.777Z,5.10
2019-05-11T10:45:34.655Z,5.17
2019-05-11T10:48:02.075Z,5.12
2019-05-11T10:50:29.454Z,5.83
2019-05-11T10:52:58.895Z,4.92
2019-05-11T10:55:27.926Z,4.83
2019-05-11T10:57:55.126Z,5.30
2019-05-11T11:00:23.507Z,6.53
2019-05-11T11:02:50.922Z,6.28
2019-05-11T11:05:18.856Z,6.20
2019-05-11T11:07:48.457Z,5.83
2019-05-11T11:10:17.972Z,5.50
2019-05-11T11:12:44.913Z,5.55
2019-05-11T11:15:12.399Z,6.12
2019-05-11T11:17:39.770Z,6.17
2019-05-11T11:20:08.624Z,5.60
2019-05-11T11:22:41.320Z,5.12
2019-05-11T11:25:07.700Z,5.20
2019-05-11T11:27:34.962Z,4.72
2019-05-11T11:30:02.766Z,4.80
2019-05-11T11:32:30.162Z,5.25
2019-05-11T11:34:57.861Z,4.78
2019-05-11T11:37:25.358Z,5.60
2019-05-11T11:39:52.751Z,5.42
2019-05-11T11:42:20.143Z,5.42
2019-05-11T11:44:48.361Z,5.60
2019-05-11T11:47:20.769Z,5.42
2019-05-11T11:49:45.028Z,5.55
2019-05-11T11:52:12.438Z,5.47
2019-05-11T11:54:39.818Z,5.05
2019-05-11T11:57:07.742Z,4.45
2019-05-11T11:59:35.290Z,5.25
2019-05-11T12:02:02.682Z,4.50
2019-05-11T12:04:30.062Z,4.20
2019-05-11T12:06:58.103Z,4.50
2019-05-11T12:09:25.570Z,4.67
2019-05-11T12:11:52.962Z,4.72
2019-05-11T12:14:20.366Z,5.60
2019-05-11T12:16:49.300Z,5.20
2019-05-11T12:19:18.704Z,5.03
2019-05-11T12:21:48.222Z,4.90
2019-05-11T12:24:15.314Z,5.03
2019-05-11T12:26:42.699Z,3.90
2019-05-11T12:29:10.098Z,4.20
2019-05-11T12:31:37.955Z,3.90
2019-05-11T12:34:05.482Z,3.87
2019-05-11T12:36:32.901Z,5.15
2019-05-11T12:39:00.282Z,5.08
2019-05-11T12:41:28.111Z,5.10
2019-05-11T12:43:57.652Z,4.75
2019-05-11T12:46:24.774Z,4.60
2019-05-11T12:48:52.170Z,3.87
2019-05-11T12:51:19.610Z,4.20
2019-05-11T12:53:47.647Z,4.50
2019-05-11T12:56:15.313Z,4.12
2019-05-11T12:58:42.739Z,4.53
2019-05-11T13:01:10.152Z,4.05
2019-05-11T13:03:38.600Z,4.00
2019-05-11T13:06:08.134Z,4.08
2019-05-11T13:08:35.568Z,4.47
2019-05-11T13:11:03.004Z,4.90
2019-05-11T13:13:30.461Z,2.72
2019-05-11T13:15:58.533Z,2.95
2019-05-11T13:18:27.955Z,3.30
2019-05-11T13:20:55.439Z,3.20
2019-05-11T13:23:22.848Z,3.55
2019-05-11T13:25:50.241Z,3.33
2019-05-11T13:28:18.054Z,3.67
2019-05-11T13:30:45.430Z,3.62
2019-05-11T13:33:12.876Z,3.80
2019-05-11T13:35:40.314Z,4.67
2019-05-11T13:38:08.677Z,3.92
2019-05-11T13:40:38.192Z,3.55
2019-05-11T13:43:05.510Z,3.20
2019-05-11T13:45:32.911Z,3.08
2019-05-11T13:48:00.366Z,3.10
2019-05-11T13:50:29.608Z,3.17
2019-05-11T13:52:58.374Z,3.50
2019-05-11T13:55:28.226Z,3.33
2019-05-11T13:57:57.685Z,3.15
2019-05-11T14:00:24.594Z,3.50
2019-05-11T14:02:52.486Z,3.25
2019-05-11T14:05:19.865Z,3.50
2019-05-11T14:07:48.348Z,3.90
2019-05-11T14:10:18.101Z,3.77
2019-05-11T14:12:47.549Z,3.92
2019-05-11T14:15:14.851Z,3.75
2019-05-11T14:17:42.264Z,4.05
2019-05-11T14:20:09.845Z,3.70
2019-05-11T14:22:38.611Z,4.53
2019-05-11T14:25:08.078Z,4.22
2019-05-11T14:27:35.567Z,5.42
2019-05-11T14:30:04.209Z,4.87
2019-05-11T14:32:31.593Z,5.33
2019-05-11T14:34:58.990Z,4.58
2019-05-11T14:37:28.412Z,4.33
2019-05-11T14:39:55.567Z,4.87
2019-05-11T14:42:22.981Z,4.83
2019-05-11T14:44:50.371Z,4.33
2019-05-11T14:47:18.076Z,4.25
2019-05-11T14:49:45.490Z,4.85
2019-05-11T14:52:12.884Z,4.08
2019-05-11T14:54:40.263Z,4.40
2019-05-11T14:57:08.175Z,4.17
2019-05-11T14:59:37.602Z,4.00
2019-05-11T15:02:24.372Z,4.40
2019-05-11T15:04:51.763Z,4.08
2019-05-11T15:07:19.150Z,3.80
2019-05-11T15:09:48.062Z,4.58
2019-05-11T15:12:15.449Z,4.37
2019-05-11T15:14:42.940Z,4.05
2019-05-11T15:17:10.351Z,4.17
2019-05-11T15:19:38.307Z,3.47
2019-05-11T15:22:05.668Z,3.42
2019-05-11T15:24:33.117Z,3.17
2019-05-11T15:27:00.505Z,3.62
2019-05-11T15:29:28.748Z,3.37
2019-05-11T15:31:57.911Z,3.35
2019-05-11T15:34:25.407Z,2.77
2019-05-11T15:36:52.850Z,3.33
2019-05-11T15:39:20.243Z,3.30
2019-05-11T15:41:48.110Z,2.90
2019-05-11T15:44:18.069Z,3.20
2019-05-11T15:46:44.746Z,3.17
2019-05-11T15:49:12.477Z,2.40
2019-05-11T15:51:41.148Z,2.47
2019-05-11T15:54:08.742Z,2.75
2019-05-11T15:56:38.308Z,3.20
2019-05-11T15:59:05.334Z,3.00
2019-05-11T16:01:32.728Z,3.10
2019-05-11T16:04:00.124Z,2.80
2019-05-11T16:06:28.442Z,2.98
2019-05-11T16:08:58.423Z,3.08
2019-05-11T16:11:25.119Z,2.95
2019-05-11T16:13:52.538Z,3.05
2019-05-11T16:16:19.934Z,2.80
2019-05-11T16:18:48.367Z,2.42
2019-05-11T16:21:18.129Z,2.52
2019-05-11T16:23:47.420Z,2.47
2019-05-11T16:26:14.806Z,2.90
2019-05-11T16:28:42.230Z,2.27
2019-05-11T16:31:09.691Z,2.50
2019-05-11T16:33:37.065Z,2.40
2019-05-11T16:36:04.508Z,2.42
2019-05-11T16:38:31.891Z,2.60
2019-05-11T16:40:59.297Z,2.15
2019-05-11T16:43:28.124Z,2.55
2019-05-11T16:45:57.846Z,2.33
2019-05-11T16:48:24.816Z,2.00
2019-05-11T16:50:52.203Z,2.00
2019-05-11T16:53:19.607Z,2.60
2019-05-11T16:55:48.635Z,2.55
2019-05-11T16:58:19.464Z,2.42
2019-05-11T17:00:45.221Z,1.85
2019-05-11T17:05:39.485Z,2.60
2019-05-11T17:08:08.124Z,2.35
2019-05-11T17:10:35.591Z,2.47
2019-05-11T17:13:03.053Z,2.40
2019-05-11T17:15:30.423Z,2.20
2019-05-11T17:17:58.776Z,2.40
2019-05-11T17:20:27.743Z,2.33
2019-05-11T17:22:55.139Z,2.60
2019-05-11T17:25:22.538Z,2.40
2019-05-11T17:27:49.942Z,2.40
2019-05-11T17:30:19.242Z,2.42
2019-05-11T17:32:49.245Z,2.55
2019-05-11T17:35:17.689Z,2.30
2019-05-11T17:37:45.167Z,2.47
2019-05-11T17:40:12.807Z,2.35
2019-05-11T17:42:40.198Z,2.47
2019-05-11T17:45:08.094Z,2.47
2019-05-11T17:47:35.562Z,2.40
2019-05-11T17:50:04.099Z,2.33
2019-05-11T17:52:31.470Z,2.30
2019-05-11T17:54:58.878Z,2.17
2019-05-11T17:57:27.774Z,2.27
2019-05-11T17:59:57.789Z,2.22
2019-05-11T18:02:24.476Z,2.47
2019-05-11T18:04:51.976Z,2.35
2019-05-11T18:07:27.489Z,2.30
2019-05-11T18:09:48.529Z,2.20
2019-05-11T18:12:17.697Z,2.85
2019-05-11T18:14:45.107Z,2.33
2019-05-11T18:17:12.513Z,2.10
2019-05-11T18:19:39.902Z,2.37
2019-05-11T18:22:08.333Z,2.27
2019-05-11T18:24:35.727Z,2.50
2019-05-11T18:27:03.144Z,2.72
2019-05-11T18:29:30.548Z,2.60
2019-05-11T18:31:57.998Z,2.40
2019-05-11T18:34:25.441Z,2.02
2019-05-11T18:36:52.864Z,2.45
2019-05-11T18:39:20.372Z,2.37
2019-05-11T18:41:48.413Z,2.37
2019-05-11T18:44:15.870Z,2.50
2019-05-11T18:46:43.364Z,2.65
2019-05-11T18:49:10.763Z,2.17
2019-05-11T18:51:38.154Z,2.60
2019-05-11T18:54:05.563Z,2.02
2019-05-11T18:56:33.034Z,2.60
2019-05-11T18:59:00.461Z,2.00
2019-05-11T19:01:28.585Z,2.00
2019-05-11T19:03:56.085Z,2.22
2019-05-11T19:06:23.470Z,2.15
2019-05-11T19:08:50.887Z,2.20
2019-05-11T19:11:18.411Z,2.02
2019-05-11T19:13:47.697Z,2.10
2019-05-11T19:16:15.022Z,3.10
2019-05-11T19:18:42.811Z,1.87
2019-05-11T19:21:10.171Z,2.15
2019-05-11T19:23:37.993Z,2.05
2019-05-11T19:26:05.506Z,1.70
2019-05-11T19:28:32.891Z,1.80
2019-05-11T19:31:00.282Z,2.00
2019-05-11T19:33:27.877Z,2.20
2019-05-11T19:35:55.319Z,2.10
2019-05-11T19:38:22.710Z,2.80
2019-05-11T19:40:50.123Z,1.95
2019-05-11T19:43:18.620Z,2.42
2019-05-11T19:45:48.177Z,2.30
2019-05-11T19:48:15.446Z,2.02
2019-05-11T19:50:42.882Z,2.47
2019-05-11T19:53:10.270Z,1.87
2019-05-11T19:55:37.690Z,2.30
2019-05-11T19:58:05.169Z,2.10
2019-05-11T20:00:32.581Z,2.00
2019-05-11T20:03:00.010Z,1.98
2019-05-11T20:05:28.806Z,2.02
2019-05-11T20:07:58.308Z,2.08
2019-05-11T20:10:27.779Z,1.92
2019-05-11T20:12:55.059Z,1.92
2019-05-11T20:15:22.493Z,2.20
2019-05-11T20:17:49.937Z,2.52
2019-05-11T20:20:18.341Z,1.80
2019-05-11T20:22:48.227Z,2.47
2019-05-11T20:25:18.032Z,2.60
2019-05-11T20:27:44.673Z,2.12
2019-05-11T20:30:12.149Z,2.08
2019-05-11T20:32:39.563Z,2.30
2019-05-11T20:35:08.492Z,2.15
2019-05-11T20:37:38.128Z,1.77
2019-05-11T20:40:05.466Z,1.75
2019-05-11T20:42:32.882Z,2.20
2019-05-11T20:45:00.284Z,2.12
2019-05-11T20:47:28.728Z,2.00
2019-05-11T20:49:58.597Z,2.37
2019-05-11T20:52:25.399Z,2.12
2019-05-11T20:54:52.814Z,2.05
2019-05-11T20:57:20.210Z,2.77
2019-05-11T20:59:47.607Z,2.10
2019-05-11T21:02:15.035Z,2.25
2019-05-11T21:04:42.420Z,2.35
2019-05-11T21:07:09.808Z,2.67
2019-05-11T21:09:37.968Z,2.22
2019-05-11T21:12:07.954Z,2.50
2019-05-11T21:14:34.601Z,2.25
2019-05-11T21:17:02.000Z,2.20
2019-05-11T21:19:29.384Z,2.12
2019-05-11T21:21:59.022Z,2.15
2019-05-11T21:24:27.913Z,1.87
2019-05-11T21:26:55.206Z,2.30
2019-05-11T21:29:22.562Z,2.40
2019-05-11T21:31:49.922Z,2.05
2019-05-11T21:34:18.831Z,2.10
2019-05-11T21:36:48.285Z,2.40
2019-05-11T21:39:15.488Z,2.17
2019-05-11T21:41:42.866Z,2.15
2019-05-11T21:44:10.286Z,2.70
2019-05-11T21:46:38.796Z,2.42
2019-05-11T21:49:07.806Z,2.40
2019-05-11T21:51:38.131Z,2.22
2019-05-11T21:54:05.406Z,2.52
2019-05-11T21:56:32.657Z,2.62
2019-05-11T21:58:59.920Z,2.40
2019-05-11T22:06:22.542Z,2.65
2019-05-11T22:08:50.788Z,2.67
2019-05-11T22:11:18.338Z,2.58
2019-05-11T22:13:45.723Z,3.60
2019-05-11T22:16:13.162Z,2.70
2019-05-11T22:18:40.558Z,2.80
2019-05-11T22:21:08.598Z,2.45
2019-05-11T22:23:36.016Z,2.55
2019-05-11T22:26:03.594Z,2.62
2019-05-11T22:28:30.996Z,2.70
2019-05-11T22:30:58.378Z,2.50
2019-05-11T22:33:25.777Z,2.45
2019-05-11T22:35:53.176Z,2.55
2019-05-11T22:38:20.590Z,3.00
2019-05-11T22:40:48.779Z,2.62
2019-05-11T22:43:18.115Z,2.40
2019-05-11T22:45:45.386Z,2.67
2019-05-11T22:48:12.774Z,2.55
2019-05-11T22:50:43.296Z,2.83
2019-05-11T22:53:11.653Z,2.75
2019-05-11T22:55:38.578Z,2.60
2019-05-11T22:58:08.282Z,2.58
2019-05-11T23:00:39.233Z,2.30
2019-05-11T23:03:07.666Z,2.20
2019-05-11T23:05:35.807Z,2.37
2019-05-11T23:08:03.286Z,2.25
2019-05-11T23:10:30.623Z,2.50
2019-05-11T23:12:58.027Z,1.70
2019-05-11T23:15:25.426Z,1.90
2019-05-11T23:17:52.812Z,2.12
2019-05-11T23:20:20.212Z,2.00
2019-05-11T23:22:56.652Z,1.40
2019-05-11T23:25:18.436Z,2.00
2019-05-11T23:27:48.244Z,1.77
2019-05-11T23:30:15.633Z,2.12
2019-05-11T23:32:43.031Z,1.87
2019-05-11T23:35:10.435Z,1.72
2019-05-11T23:37:38.613Z,1.72
2019-05-11T23:40:08.911Z,2.00
2019-05-11T23:42:37.657Z,1.42
2019-05-11T23:45:08.224Z,2.00
2019-05-11T23:47:34.800Z,1.98
2019-05-11T23:50:02.236Z,1.92
2019-05-11T23:52:29.681Z,1.85
2019-05-11T23:54:58.944Z,1.67
2019-05-11T23:57:26.320Z,2.08
2019-05-11T23:59:53.706Z,1.75
